Athens, ME (04912)

7:50 PM EST on February 07, 2016 (GMT -0500)
North central Maine | | Change Station
CLOSE
Current Station
Personal Weather Station
Location: Cambridge, ME
Elevation: 705 ft
Nearby Weather Stations
Active Advisory: Winter Weather Advisory

Elev 705 ft 45.04 °N, 69.49 °W | Updated 10 minutes ago

Partly Cloudy
Partly Cloudy
22.6 °F
Feels Like 14 °F
N
7.0
Wind Variable Wind from NNE
Gusts 10.0 mph

Today
High -- | Low -- °F
--% Chance of Precip.
Yesterday
High -- | Low -- °F
Precip. -- in
Pressure 30.27 in
Visibility 10.0 miles
Clouds Clear
Windchill 14 °F
Dew Point -2 °F
Humidity 34%
Rainfall 0.00 in
Snow Depth Not available.
6:51 AM 4:54 PM
Waning Crescent, 0% visible
METAR KWVL 072356Z AUTO 04008KT 10SM CLR M01/M11 A3015 RMK AO2 SLP248 T10111106 10033 21017 53005 FZRANO
Pressure 30.27 in
Visibility 10.0 miles
Clouds Clear
Windchill 14 °F
Dew Point -2 °F
Humidity 34%
Rainfall 0.00 in
Snow Depth Not available.
6:51 AM 4:54 PM
Waning Crescent, 0% visible
METAR KWVL 072356Z AUTO 04008KT 10SM CLR M01/M11 A3015 RMK AO2 SLP248 T10111106 10033 21017 53005 FZRANO

10-Day Weather Forecast

Almanac

Astronomy

Feb. 07, 2016 Rise Set
Actual Time
Civil Twilight
Nautical Twilight
Astronomical Twilight
Moon
Length of Visible Light
Length of Day
Tomorrow will be .
, % of the Moon is Illuminated

Today's Extremes

State Highs State Lows

Community

WunderPhotos

Upload Photos

1,891,339 photos uploaded!

WunderBlog® & News

Nearby

Air Quality

  Air Quality AQ Index Pollutant
Not available.

Snow Depth

Station Depth Elevation

Earthquake Activity

City Distance Mag. Time & Date
Minimum magnitude displayed is 2.5.

Coastal Water Temperatures

Place Temperature

Stations

Nearby Weather Stations

Station Location Temp. Windchill Dew Point Humidity Wind Precip. Elev Updated Type
                   

Watches & Warnings

Winter Weather Advisory
Issued: 3:10 PM EST Feb. 7, 2016 – National Weather Service

... Winter Weather Advisory in effect from noon Monday to noon EST
Tuesday...

The National Weather Service in gray has issued a Winter Weather
Advisory for snow... which is in effect from noon Monday to noon
EST Tuesday.

* Hazard types... snow.

* Accumulations... snow accumulation of 3 to 6 inches.

* Timing... snow begins around midday Monday and continues into
Tuesday.

* Impacts... roads will become snow covered and slippery. Strong
winds will cause blowing and drifting snow and could lead to
low visibility in spots.

* Winds... northeast 10 to 15 mph with gusts up to 25 mph.

* Temperatures... in the single digits and teens.

Precautionary/preparedness actions...

A Winter Weather Advisory for snow means that periods of snow
will cause primarily travel difficulties. Be prepared for snow
covered roads and limited visibilities... and use caution while
driving.